African Highway — 3EOD8 — position and weather

sailwx.info

Track history (hours):
 
Tides and Currents Weather Stations Pressure Air Temp Water Temp Dewpoint Dewpoint Depression Visibility Wind Speed Wind Dir Waves Ship Positions

African Highway

Last reported at 2015-Mar-03 15:33 UTC. Time now 2015-Mar-03 16:32 UTC.
Position N 53°28' E 006°52'.

Length 154.5 m; beam 27.6 m.

Type: Cargo ship. MMSI: 353633000.

Date/timePositionNaut miles runAvg speedWind from/ knotsBaromVisibWave heightAir tempDewpointWater temp
2015-Mar-03 15:33N 53°28' E 006°52'1111.0
2015-Mar-03 14:33N 53°19' E 007°04'4 3.7
2015-Mar-03 13:33N 53°20' E 007°10'0 0.0
2015-Mar-03 12:33N 53°20' E 007°10'0 0.0
2015-Mar-03 11:33N 53°20' E 007°10'0 0.0
2015-Mar-03 10:33N 53°20' E 007°10'0 0.0
2015-Mar-03 09:33N 53°20' E 007°10'0 0.0
2015-Mar-03 08:33N 53°20' E 007°10'0 0.0
2015-Mar-03 07:33N 53°20' E 007°10'0 0.0
2015-Mar-03 06:27N 53°20' E 007°10'0 0.0
2015-Mar-03 05:30N 53°20' E 007°10'0 0.0
2015-Mar-03 04:33N 53°20' E 007°10'0 0.0
2015-Mar-03 03:30N 53°20' E 007°10'0 0.0
2015-Mar-03 02:30N 53°20' E 007°10'0 0.0
2015-Mar-03 01:33N 53°20' E 007°10'0 0.0
2015-Mar-03 00:33N 53°20' E 007°10'0 0.0
2015-Mar-02 23:33N 53°20' E 007°10'0 0.0
2015-Mar-02 22:33N 53°20' E 007°10'0 0.0
2015-Mar-02 21:30N 53°20' E 007°10'0 0.0
2015-Mar-02 20:33N 53°20' E 007°10'5 5.0
2015-Mar-02 19:33N 53°19' E 007°02'1414.4
2015-Mar-02 18:33N 53°31' E 006°47'1312.6
2015-Mar-02 17:33N 53°37' E 006°28'7 7.3
2015-Mar-02 16:34N 53°40' E 006°17'4 4.0
2015-Mar-02 15:33N 53°38' E 006°11'7 7.3
2015-Mar-02 14:33N 53°37' E 005°59'4 4.0
2015-Mar-02 13:33N 53°39' E 006°05'4 3.9
2015-Mar-02 12:33N 53°40' E 006°11'3 3.5
2015-Mar-02 11:34N 53°38' E 006°06'8 7.7
2015-Mar-02 10:34N 53°36' E 005°54'8 7.8
2015-Mar-02 09:34N 53°35' E 005°41'9 8.6
2015-Mar-02 08:34N 53°33' E 005°26'1313.1
2015-Mar-02 07:34N 53°29' E 005°05'1515.3
2015-Mar-02 06:33N 53°22' E 004°43'1514.9
2015-Mar-02 05:33N 53°08' E 004°31'1713.9
2015-Mar-02 04:20N 52°54' E 004°18'1415.0
2015-Mar-02 03:24N 52°43' E 004°03'1315.5
2015-Mar-02 02:33N 52°33' E 003°48'3616.0
2015-Mar-02 00:17N 52°08' E 003°06'4516.4
2015-Mar-01 21:33N 51°43' E 002°06'1616.2
2015-Mar-01 20:34N 51°33' E 001°45'1212.1
2015-Mar-01 19:34N 51°27' E 001°28'1212.1
2015-Mar-01 18:33N 51°29' E 001°09'1413.7
2015-Mar-01 17:33N 51°28' E 000°47'2 2.3
2015-Mar-01 16:32N 51°26' E 000°44'0 0.0
2015-Mar-01 15:29N 51°26' E 000°44'0 0.0
2015-Mar-01 14:32N 51°26' E 000°44'0 0.0
2015-Mar-01 13:32N 51°26' E 000°44'0 0.0
2015-Mar-01 12:32N 51°26' E 000°44'0 0.0
2015-Mar-01 11:32N 51°26' E 000°44'0 0.0
2015-Mar-01 10:32N 51°26' E 000°44'0 0.0
2015-Mar-01 09:32N 51°26' E 000°44'0 0.0
2015-Mar-01 08:32N 51°26' E 000°44'0 0.0
2015-Mar-01 07:32N 51°26' E 000°44'0 0.0
2015-Mar-01 06:32N 51°26' E 000°44'0 0.0
2015-Mar-01 05:32N 51°26' E 000°44'0 0.0
2015-Mar-01 04:32N 51°26' E 000°44'0 0.0
2015-Mar-01 03:32N 51°26' E 000°44'0 0.0
2015-Mar-01 02:32N 51°26' E 000°44'0 0.0
2015-Mar-01 01:32N 51°26' E 000°44'0 0.0
2015-Mar-01 00:32N 51°26' E 000°44'0 0.0
2015-Feb-28 23:29N 51°26' E 000°44'0 0.0
2015-Feb-28 22:32N 51°26' E 000°44'0 0.0
2015-Feb-28 21:32N 51°26' E 000°44'0 0.0
2015-Feb-28 20:33N 51°26' E 000°44'3 3.1
2015-Feb-28 19:33N 51°28' E 000°48'1414.2
2015-Feb-28 18:33N 51°29' E 001°11'1212.5
2015-Feb-28 17:34N 51°25' E 001°30'8 7.5
2015-Feb-28 16:34N 51°30' E 001°38'1010.2
2015-Feb-28 15:33N 51°36' E 001°52'1414.3
2015-Feb-28 14:33N 51°45' E 002°10'7413.6
2015-Feb-28 09:07N 52°39' E 003°33'1013.3
2015-Feb-28 08:23N 52°47' E 003°42'1214.0
2015-Feb-28 07:30N 52°56' E 003°55'1514.5
2015-Feb-28 06:29N 53°06' E 004°13'1814.5
2015-Feb-28 05:16N 53°20' E 004°31'1014.3
2015-Feb-28 04:32N 53°29' E 004°40'1413.8
2015-Feb-28 03:33N 53°34' E 005°02'1313.3
2015-Feb-28 02:33N 53°38' E 005°23'1313.4
2015-Feb-28 01:33N 53°42' E 005°44'1413.8
2015-Feb-28 00:33N 53°46' E 006°06'1212.2
2015-Feb-27 23:33N 53°39' E 006°23'1313.2
2015-Feb-27 22:33N 53°33' E 006°42'1615.9
2015-Feb-27 21:33N 53°21' E 006°59'7 7.1
2015-Feb-27 20:33N 53°20' E 007°11'0 0.5
2015-Feb-27 19:33N 53°21' E 007°12'0 0.0
2015-Feb-27 18:33N 53°21' E 007°12'0 0.0
2015-Feb-27 17:33N 53°21' E 007°12'0 0.0
2015-Feb-27 16:33N 53°21' E 007°12'0 0.0
2015-Feb-27 15:33N 53°21' E 007°12'0 0.0
2015-Feb-27 14:33N 53°21' E 007°12'0 0.0
2015-Feb-27 13:33N 53°21' E 007°12'0 0.0
2015-Feb-27 12:30N 53°21' E 007°12'0 0.0
2015-Feb-27 11:30N 53°21' E 007°12'0 0.0
2015-Feb-27 10:33N 53°21' E 007°12'0 0.0
2015-Feb-27 09:33N 53°21' E 007°12'0 0.0
2015-Feb-27 08:33N 53°21' E 007°12'0 0.0
2015-Feb-27 07:33N 53°21' E 007°12'0 0.0
2015-Feb-27 06:33N 53°21' E 007°12'0 0.0
2015-Feb-27 05:33N 53°21' E 007°12'0 0.0
2015-Feb-27 04:33N 53°21' E 007°12'2 1.5
2015-Feb-27 03:33N 53°20' E 007°10'1211.9
2015-Feb-27 02:34N 53°27' E 006°53'1616.3
2015-Feb-27 01:34N 53°37' E 006°32'1111.2
2015-Feb-27 00:33N 53°38' E 006°13'1616.5
2015-Feb-26 23:34N 53°36' E 005°45'1818.1
2015-Feb-26 22:33N 53°31' E 005°16'1818.2
2015-Feb-26 21:34N 53°26' E 004°47'2114.6
2015-Feb-26 20:07N 53°20' E 004°13'12416.4
2015-Feb-26 12:32N 53°34' E 000°46'1616.7
2015-Feb-26 11:34N 53°32' E 000°18'1010.2
2015-Feb-26 10:33N 53°35' E 000°02'4 3.5
2015-Feb-26 09:33N 53°35' W 000°04'0 0.0
2015-Feb-26 08:33N 53°35' W 000°04'0 0.0
2015-Feb-26 07:33N 53°35' W 000°04'0 0.0
2015-Feb-26 06:33N 53°35' W 000°04'0 0.0
2015-Feb-26 05:33N 53°35' W 000°04'0 0.0
2015-Feb-26 04:33N 53°35' W 000°04'0 0.0
2015-Feb-26 03:33N 53°35' W 000°04'0 0.0
2015-Feb-26 02:33N 53°35' W 000°04'0 0.0
2015-Feb-26 01:33N 53°35' W 000°04'0 0.0
2015-Feb-26 00:33N 53°35' W 000°04'0 0.0
2015-Feb-25 23:33N 53°35' W 000°04'0 0.0
2015-Feb-25 22:33N 53°35' W 000°04'3 2.7
2015-Feb-25 21:33N 53°35' E 000°01'1110.5
2015-Feb-25 20:33N 53°33' E 000°18'6 6.1
2015-Feb-25 19:33N 53°33' E 000°28'6 6.2
2015-Feb-25 18:33N 53°35' E 000°38'8 7.4
2015-Feb-25 17:28N 53°32' E 000°51'6 0.8
2015-Feb-25 10:14N 53°27' E 000°47'2 2.4
2015-Feb-25 09:31N 53°29' E 000°46'5 5.1
2015-Feb-25 08:32N 53°33' E 000°49'13513.4
2015-Feb-24 22:30N 54°03' E 004°31'1111.7
2015-Feb-24 21:33N 54°02' E 004°50'1212.5
2015-Feb-24 20:33N 53°59' E 005°11'1313.4
2015-Feb-24 19:33N 53°56' E 005°33'1514.6
2015-Feb-24 18:34N 53°52' E 005°57'1414.0
2015-Feb-24 17:33N 53°43' E 006°14'1413.5
2015-Feb-24 16:33N 53°36' E 006°35'1616.0
2015-Feb-24 15:33N 53°26' E 006°55'1010.0
2015-Feb-24 14:33N 53°20' E 007°08'1 1.3
2015-Feb-24 13:31N 53°20' E 007°10'0 0.0
2015-Feb-24 12:25N 53°20' E 007°10'0 0.0
2015-Feb-24 11:31N 53°20' E 007°10'0 0.0
2015-Feb-24 10:28N 53°20' E 007°10'0 0.0
2015-Feb-24 09:31N 53°20' E 007°10'0 0.0
2015-Feb-24 08:28N 53°20' E 007°10'0 0.0
2015-Feb-24 07:31N 53°20' E 007°10'0 0.0
2015-Feb-24 06:31N 53°20' E 007°10'0 0.0
2015-Feb-24 05:31N 53°20' E 007°10'0 0.0
2015-Feb-24 04:31N 53°20' E 007°10'0 0.0
2015-Feb-24 03:28N 53°20' E 007°10'0 0.0
2015-Feb-24 02:31N 53°20' E 007°10'0 0.0
2015-Feb-24 01:28N 53°20' E 007°10'0 0.0
2015-Feb-24 00:28N 53°20' E 007°10'0 0.0
2015-Feb-23 23:31N 53°20' E 007°10'0 0.0
2015-Feb-23 22:31N 53°20' E 007°10'0 0.0
2015-Feb-23 21:31N 53°20' E 007°10'0 0.0
2015-Feb-23 20:31N 53°20' E 007°10'0 0.0
2015-Feb-23 19:31N 53°20' E 007°10'0 0.4
2015-Feb-23 18:33N 53°20' E 007°10'6 6.3
2015-Feb-23 17:33N 53°21' E 006°59'1111.2
2015-Feb-23 16:33N 53°30' E 006°48'1312.9
2015-Feb-23 15:33N 53°37' E 006°30'9 8.9
2015-Feb-23 14:33N 53°37' E 006°15'3 2.9
2015-Feb-23 13:33N 53°38' E 006°10'2 2.0
2015-Feb-23 12:33N 53°38' E 006°07'6 5.9
2015-Feb-23 11:33N 53°37' E 005°57'3 3.1
2015-Feb-23 10:33N 53°38' E 006°02'5 4.6
2015-Feb-23 09:33N 53°39' E 006°10'2 1.8
2015-Feb-23 08:32N 53°39' E 006°13'8 7.8
2015-Feb-23 07:33N 53°36' E 006°01'2 2.0
2015-Feb-23 06:33N 53°36' E 005°57'6 5.7
2015-Feb-23 05:33N 53°38' E 006°07'3 2.7
2015-Feb-23 04:33N 53°38' E 006°11'5 5.1
2015-Feb-23 03:33N 53°37' E 006°03'5 4.6
2015-Feb-23 02:33N 53°39' E 005°55'5 5.5
2015-Feb-23 01:33N 53°37' E 005°46'6 6.2
2015-Feb-23 00:33N 53°35' E 005°36'7 6.7
2015-Feb-22 23:33N 53°33' E 005°26'7 7.2
2015-Feb-22 22:33N 53°31' E 005°14'8 7.7
2015-Feb-22 21:33N 53°28' E 005°02'8 7.7
2015-Feb-22 20:33N 53°26' E 004°50'9 9.0
2015-Feb-22 19:33N 53°21' E 004°37'14012.6
2015-Feb-22 08:29N 53°33' E 000°43'1415.7
2015-Feb-22 07:34N 53°32' E 000°19'1110.6
2015-Feb-22 06:33N 53°35' E 000°02'3 3.4
2015-Feb-22 05:32N 53°35' W 000°04'0 0.0
2015-Feb-22 04:32N 53°35' W 000°04'0 0.0
2015-Feb-22 03:32N 53°35' W 000°04'0 0.0
2015-Feb-22 02:32N 53°35' W 000°04'0 0.0
2015-Feb-22 01:32N 53°35' W 000°04'0 0.0
2015-Feb-22 00:32N 53°35' W 000°04'0 0.0
2015-Feb-21 23:32N 53°35' W 000°04'0 0.0
2015-Feb-21 22:32N 53°35' W 000°04'0 0.0
2015-Feb-21 21:32N 53°35' W 000°04'0 0.0
2015-Feb-21 20:32N 53°35' W 000°04'0 0.0
2015-Feb-21 19:32N 53°35' W 000°04'3 2.7
2015-Feb-21 18:33N 53°35' E 000°00'1110.5
2015-Feb-21 17:33N 53°33' E 000°18'5 5.4
2015-Feb-21 16:33N 53°33' E 000°27'  
Track history (hours):
 
Tides and Currents Weather Stations Pressure Air Temp Water Temp Dewpoint Dewpoint Depression Visibility Wind Speed Wind Dir Waves Ship Positions

African Highway

Last reported at 2015-Mar-03 15:33 UTC. Time now 2015-Mar-03 16:32 UTC.
Position N 53°28' E 006°52'.

Length 154.5 m; beam 27.6 m.

Type: Cargo ship. MMSI: 353633000.

Date/timePositionNaut miles runAvg speedWind from/ knotsBaromVisibWave heightAir tempDewpointWater temp
2015-Mar-03 15:33N 53°28' E 006°52'1111.0
2015-Mar-03 14:33N 53°19' E 007°04'4 3.7
2015-Mar-03 13:33N 53°20' E 007°10'0 0.0
2015-Mar-03 12:33N 53°20' E 007°10'0 0.0
2015-Mar-03 11:33N 53°20' E 007°10'0 0.0
2015-Mar-03 10:33N 53°20' E 007°10'0 0.0
2015-Mar-03 09:33N 53°20' E 007°10'0 0.0
2015-Mar-03 08:33N 53°20' E 007°10'0 0.0
2015-Mar-03 07:33N 53°20' E 007°10'0 0.0
2015-Mar-03 06:27N 53°20' E 007°10'0 0.0
2015-Mar-03 05:30N 53°20' E 007°10'0 0.0
2015-Mar-03 04:33N 53°20' E 007°10'0 0.0
2015-Mar-03 03:30N 53°20' E 007°10'0 0.0
2015-Mar-03 02:30N 53°20' E 007°10'0 0.0
2015-Mar-03 01:33N 53°20' E 007°10'0 0.0
2015-Mar-03 00:33N 53°20' E 007°10'0 0.0
2015-Mar-02 23:33N 53°20' E 007°10'0 0.0
2015-Mar-02 22:33N 53°20' E 007°10'0 0.0
2015-Mar-02 21:30N 53°20' E 007°10'0 0.0
2015-Mar-02 20:33N 53°20' E 007°10'5 5.0
2015-Mar-02 19:33N 53°19' E 007°02'1414.4
2015-Mar-02 18:33N 53°31' E 006°47'1312.6
2015-Mar-02 17:33N 53°37' E 006°28'7 7.3
2015-Mar-02 16:34N 53°40' E 006°17'4 4.0
2015-Mar-02 15:33N 53°38' E 006°11'7 7.3
2015-Mar-02 14:33N 53°37' E 005°59'4 4.0
2015-Mar-02 13:33N 53°39' E 006°05'4 3.9
2015-Mar-02 12:33N 53°40' E 006°11'3 3.5
2015-Mar-02 11:34N 53°38' E 006°06'8 7.7
2015-Mar-02 10:34N 53°36' E 005°54'8 7.8
2015-Mar-02 09:34N 53°35' E 005°41'9 8.6
2015-Mar-02 08:34N 53°33' E 005°26'1313.1
2015-Mar-02 07:34N 53°29' E 005°05'1515.3
2015-Mar-02 06:33N 53°22' E 004°43'1514.9
2015-Mar-02 05:33N 53°08' E 004°31'1713.9
2015-Mar-02 04:20N 52°54' E 004°18'1415.0
2015-Mar-02 03:24N 52°43' E 004°03'1315.5
2015-Mar-02 02:33N 52°33' E 003°48'3616.0
2015-Mar-02 00:17N 52°08' E 003°06'4516.4
2015-Mar-01 21:33N 51°43' E 002°06'1616.2
2015-Mar-01 20:34N 51°33' E 001°45'1212.1
2015-Mar-01 19:34N 51°27' E 001°28'1212.1
2015-Mar-01 18:33N 51°29' E 001°09'1413.7
2015-Mar-01 17:33N 51°28' E 000°47'2 2.3
2015-Mar-01 16:32N 51°26' E 000°44'0 0.0
2015-Mar-01 15:29N 51°26' E 000°44'0 0.0
2015-Mar-01 14:32N 51°26' E 000°44'0 0.0
2015-Mar-01 13:32N 51°26' E 000°44'0 0.0
2015-Mar-01 12:32N 51°26' E 000°44'0 0.0
2015-Mar-01 11:32N 51°26' E 000°44'0 0.0
2015-Mar-01 10:32N 51°26' E 000°44'0 0.0
2015-Mar-01 09:32N 51°26' E 000°44'0 0.0
2015-Mar-01 08:32N 51°26' E 000°44'0 0.0
2015-Mar-01 07:32N 51°26' E 000°44'0 0.0
2015-Mar-01 06:32N 51°26' E 000°44'0 0.0
2015-Mar-01 05:32N 51°26' E 000°44'0 0.0
2015-Mar-01 04:32N 51°26' E 000°44'0 0.0
2015-Mar-01 03:32N 51°26' E 000°44'0 0.0
2015-Mar-01 02:32N 51°26' E 000°44'0 0.0
2015-Mar-01 01:32N 51°26' E 000°44'0 0.0
2015-Mar-01 00:32N 51°26' E 000°44'0 0.0
2015-Feb-28 23:29N 51°26' E 000°44'0 0.0
2015-Feb-28 22:32N 51°26' E 000°44'0 0.0
2015-Feb-28 21:32N 51°26' E 000°44'0 0.0
2015-Feb-28 20:33N 51°26' E 000°44'3 3.1
2015-Feb-28 19:33N 51°28' E 000°48'1414.2
2015-Feb-28 18:33N 51°29' E 001°11'1212.5
2015-Feb-28 17:34N 51°25' E 001°30'8 7.5
2015-Feb-28 16:34N 51°30' E 001°38'1010.2
2015-Feb-28 15:33N 51°36' E 001°52'1414.3
2015-Feb-28 14:33N 51°45' E 002°10'7413.6
2015-Feb-28 09:07N 52°39' E 003°33'1013.3
2015-Feb-28 08:23N 52°47' E 003°42'1214.0
2015-Feb-28 07:30N 52°56' E 003°55'1514.5
2015-Feb-28 06:29N 53°06' E 004°13'1814.5
2015-Feb-28 05:16N 53°20' E 004°31'1014.3
2015-Feb-28 04:32N 53°29' E 004°40'1413.8
2015-Feb-28 03:33N 53°34' E 005°02'1313.3
2015-Feb-28 02:33N 53°38' E 005°23'1313.4
2015-Feb-28 01:33N 53°42' E 005°44'1413.8
2015-Feb-28 00:33N 53°46' E 006°06'1212.2
2015-Feb-27 23:33N 53°39' E 006°23'1313.2
2015-Feb-27 22:33N 53°33' E 006°42'1615.9
2015-Feb-27 21:33N 53°21' E 006°59'7 7.1
2015-Feb-27 20:33N 53°20' E 007°11'0 0.5
2015-Feb-27 19:33N 53°21' E 007°12'0 0.0
2015-Feb-27 18:33N 53°21' E 007°12'0 0.0
2015-Feb-27 17:33N 53°21' E 007°12'0 0.0
2015-Feb-27 16:33N 53°21' E 007°12'0 0.0
2015-Feb-27 15:33N 53°21' E 007°12'0 0.0
2015-Feb-27 14:33N 53°21' E 007°12'0 0.0
2015-Feb-27 13:33N 53°21' E 007°12'0 0.0
2015-Feb-27 12:30N 53°21' E 007°12'0 0.0
2015-Feb-27 11:30N 53°21' E 007°12'0 0.0
2015-Feb-27 10:33N 53°21' E 007°12'0 0.0
2015-Feb-27 09:33N 53°21' E 007°12'0 0.0
2015-Feb-27 08:33N 53°21' E 007°12'0 0.0
2015-Feb-27 07:33N 53°21' E 007°12'0 0.0
2015-Feb-27 06:33N 53°21' E 007°12'0 0.0
2015-Feb-27 05:33N 53°21' E 007°12'0 0.0
2015-Feb-27 04:33N 53°21' E 007°12'2 1.5
2015-Feb-27 03:33N 53°20' E 007°10'1211.9
2015-Feb-27 02:34N 53°27' E 006°53'1616.3
2015-Feb-27 01:34N 53°37' E 006°32'1111.2
2015-Feb-27 00:33N 53°38' E 006°13'1616.5
2015-Feb-26 23:34N 53°36' E 005°45'1818.1
2015-Feb-26 22:33N 53°31' E 005°16'1818.2
2015-Feb-26 21:34N 53°26' E 004°47'2114.6
2015-Feb-26 20:07N 53°20' E 004°13'12416.4
2015-Feb-26 12:32N 53°34' E 000°46'1616.7
2015-Feb-26 11:34N 53°32' E 000°18'1010.2
2015-Feb-26 10:33N 53°35' E 000°02'4 3.5
2015-Feb-26 09:33N 53°35' W 000°04'0 0.0
2015-Feb-26 08:33N 53°35' W 000°04'0 0.0
2015-Feb-26 07:33N 53°35' W 000°04'0 0.0
2015-Feb-26 06:33N 53°35' W 000°04'0 0.0
2015-Feb-26 05:33N 53°35' W 000°04'0 0.0
2015-Feb-26 04:33N 53°35' W 000°04'0 0.0
2015-Feb-26 03:33N 53°35' W 000°04'0 0.0
2015-Feb-26 02:33N 53°35' W 000°04'0 0.0
2015-Feb-26 01:33N 53°35' W 000°04'0 0.0
2015-Feb-26 00:33N 53°35' W 000°04'0 0.0
2015-Feb-25 23:33N 53°35' W 000°04'0 0.0
2015-Feb-25 22:33N 53°35' W 000°04'3 2.7
2015-Feb-25 21:33N 53°35' E 000°01'1110.5
2015-Feb-25 20:33N 53°33' E 000°18'6 6.1
2015-Feb-25 19:33N 53°33' E 000°28'6 6.2
2015-Feb-25 18:33N 53°35' E 000°38'8 7.4
2015-Feb-25 17:28N 53°32' E 000°51'6 0.8
2015-Feb-25 10:14N 53°27' E 000°47'2 2.4
2015-Feb-25 09:31N 53°29' E 000°46'5 5.1
2015-Feb-25 08:32N 53°33' E 000°49'13513.4
2015-Feb-24 22:30N 54°03' E 004°31'1111.7
2015-Feb-24 21:33N 54°02' E 004°50'1212.5
2015-Feb-24 20:33N 53°59' E 005°11'1313.4
2015-Feb-24 19:33N 53°56' E 005°33'1514.6
2015-Feb-24 18:34N 53°52' E 005°57'1414.0
2015-Feb-24 17:33N 53°43' E 006°14'1413.5
2015-Feb-24 16:33N 53°36' E 006°35'1616.0
2015-Feb-24 15:33N 53°26' E 006°55'1010.0
2015-Feb-24 14:33N 53°20' E 007°08'1 1.3
2015-Feb-24 13:31N 53°20' E 007°10'0 0.0
2015-Feb-24 12:25N 53°20' E 007°10'0 0.0
2015-Feb-24 11:31N 53°20' E 007°10'0 0.0
2015-Feb-24 10:28N 53°20' E 007°10'0 0.0
2015-Feb-24 09:31N 53°20' E 007°10'0 0.0
2015-Feb-24 08:28N 53°20' E 007°10'0 0.0
2015-Feb-24 07:31N 53°20' E 007°10'0 0.0
2015-Feb-24 06:31N 53°20' E 007°10'0 0.0
2015-Feb-24 05:31N 53°20' E 007°10'0 0.0
2015-Feb-24 04:31N 53°20' E 007°10'0 0.0
2015-Feb-24 03:28N 53°20' E 007°10'0 0.0
2015-Feb-24 02:31N 53°20' E 007°10'0 0.0
2015-Feb-24 01:28N 53°20' E 007°10'0 0.0
2015-Feb-24 00:28N 53°20' E 007°10'0 0.0
2015-Feb-23 23:31N 53°20' E 007°10'0 0.0
2015-Feb-23 22:31N 53°20' E 007°10'0 0.0
2015-Feb-23 21:31N 53°20' E 007°10'0 0.0
2015-Feb-23 20:31N 53°20' E 007°10'0 0.0
2015-Feb-23 19:31N 53°20' E 007°10'0 0.4
2015-Feb-23 18:33N 53°20' E 007°10'6 6.3
2015-Feb-23 17:33N 53°21' E 006°59'1111.2
2015-Feb-23 16:33N 53°30' E 006°48'1312.9
2015-Feb-23 15:33N 53°37' E 006°30'9 8.9
2015-Feb-23 14:33N 53°37' E 006°15'3 2.9
2015-Feb-23 13:33N 53°38' E 006°10'2 2.0
2015-Feb-23 12:33N 53°38' E 006°07'6 5.9
2015-Feb-23 11:33N 53°37' E 005°57'3 3.1
2015-Feb-23 10:33N 53°38' E 006°02'5 4.6
2015-Feb-23 09:33N 53°39' E 006°10'2 1.8
2015-Feb-23 08:32N 53°39' E 006°13'8 7.8
2015-Feb-23 07:33N 53°36' E 006°01'2 2.0
2015-Feb-23 06:33N 53°36' E 005°57'6 5.7
2015-Feb-23 05:33N 53°38' E 006°07'3 2.7
2015-Feb-23 04:33N 53°38' E 006°11'5 5.1
2015-Feb-23 03:33N 53°37' E 006°03'5 4.6
2015-Feb-23 02:33N 53°39' E 005°55'5 5.5
2015-Feb-23 01:33N 53°37' E 005°46'6 6.2
2015-Feb-23 00:33N 53°35' E 005°36'7 6.7
2015-Feb-22 23:33N 53°33' E 005°26'7 7.2
2015-Feb-22 22:33N 53°31' E 005°14'8 7.7
2015-Feb-22 21:33N 53°28' E 005°02'8 7.7
2015-Feb-22 20:33N 53°26' E 004°50'9 9.0
2015-Feb-22 19:33N 53°21' E 004°37'14012.6
2015-Feb-22 08:29N 53°33' E 000°43'1415.7
2015-Feb-22 07:34N 53°32' E 000°19'1110.6
2015-Feb-22 06:33N 53°35' E 000°02'3 3.4
2015-Feb-22 05:32N 53°35' W 000°04'0 0.0
2015-Feb-22 04:32N 53°35' W 000°04'0 0.0
2015-Feb-22 03:32N 53°35' W 000°04'0 0.0
2015-Feb-22 02:32N 53°35' W 000°04'0 0.0
2015-Feb-22 01:32N 53°35' W 000°04'0 0.0
2015-Feb-22 00:32N 53°35' W 000°04'0 0.0
2015-Feb-21 23:32N 53°35' W 000°04'0 0.0
2015-Feb-21 22:32N 53°35' W 000°04'0 0.0
2015-Feb-21 21:32N 53°35' W 000°04'0 0.0
2015-Feb-21 20:32N 53°35' W 000°04'0 0.0
2015-Feb-21 19:32N 53°35' W 000°04'3 2.7
2015-Feb-21 18:33N 53°35' E 000°00'1110.5
2015-Feb-21 17:33N 53°33' E 000°18'5 5.4
2015-Feb-21 16:33N 53°33' E 000°27'  

Dump ship's entire track history